Terminal Aerodrome Forecast
Issued by NWS Sterling, VA

Home | Current Version | Previous Version | Text Only | Print | Product List | Glossary On
Versions: 1 2 3 4 5 6 7 8 9 10 11 12 13 14 15 16 17 18 19 20 21 22
925
FTUS41 KLWX 252054 AAB
TAFDCA
TAF AMD
KDCA 252054Z 2521/2618 31012G19KT P6SM -SHRA VCTS OVC045CB
     FM252200 31012KT P6SM BKN050
     FM260000 30015G25KT P6SM SCT080
     FM260100 30017G34KT P6SM SCT110
     FM260400 30016G27KT P6SM FEW250
     FM260600 30014G24KT P6SM FEW040
     FM261600 29013G23KT P6SM FEW250
     FM261700 29012G22KT P6SM FEW050=

USA.gov is the U.S. government's official web portal to all federal, state and local government web resources and services.